createdAt,value
2019-02-27T00:01:16.924Z,103116.56
2019-02-27T00:03:46.196Z,103115.25
2019-02-27T00:06:15.926Z,103116.27
2019-02-27T00:08:42.780Z,103114.39
2019-02-27T00:11:12.236Z,103117.58
2019-02-27T00:13:39.004Z,103117.85
2019-02-27T00:16:10.884Z,103111.90
2019-02-27T00:18:36.606Z,103118.78
2019-02-27T00:21:05.081Z,103118.20
2019-02-27T00:23:33.050Z,103117.93
2019-02-27T00:26:00.196Z,103121.27
2019-02-27T00:28:27.231Z,103115.88
2019-02-27T00:30:54.650Z,103108.12
2019-02-27T00:33:25.051Z,103104.61
2019-02-27T00:35:51.308Z,103108.64
2019-02-27T00:38:18.865Z,103101.78
2019-02-27T00:40:45.898Z,103097.52
2019-02-27T00:43:13.673Z,103098.94
2019-02-27T00:45:41.195Z,103093.68
2019-02-27T00:48:09.718Z,103096.23
2019-02-27T00:50:38.915Z,103098.80
2019-02-27T00:53:06.174Z,103103.24
2019-02-27T00:55:38.640Z,103096.66
2019-02-27T00:58:03.645Z,103096.74
2019-02-27T01:00:32.127Z,103094.24
2019-02-27T01:02:59.886Z,103091.64
2019-02-27T01:05:27.243Z,103082.59
2019-02-27T01:07:54.745Z,103086.66
2019-02-27T01:10:23.485Z,103081.72
2019-02-27T01:12:51.965Z,103085.59
2019-02-27T01:15:21.061Z,103085.34
2019-02-27T01:17:48.726Z,103086.09
2019-02-27T01:20:16.182Z,103080.02
2019-02-27T01:22:43.639Z,103075.45
2019-02-27T01:25:11.297Z,103077.53
2019-02-27T01:27:38.972Z,103072.30
2019-02-27T01:30:07.441Z,103067.51
2019-02-27T01:32:34.901Z,103061.23
2019-02-27T01:35:01.998Z,103054.14
2019-02-27T01:37:31.688Z,103051.58
2019-02-27T01:39:58.542Z,103047.36
2019-02-27T01:42:31.969Z,103044.38
2019-02-27T01:44:57.324Z,103042.33
2019-02-27T01:47:26.498Z,103039.95
2019-02-27T01:49:54.161Z,103035.14
2019-02-27T01:52:21.231Z,103034.15
2019-02-27T01:54:49.791Z,103031.41
2019-02-27T01:57:17.187Z,103031.02
2019-02-27T01:59:44.501Z,103015.81
2019-02-27T02:02:11.670Z,103019.20
2019-02-27T02:04:40.139Z,103007.74
2019-02-27T02:07:08.610Z,103016.28
2019-02-27T02:09:37.763Z,103007.18
2019-02-27T02:12:17.236Z,103009.73
2019-02-27T02:15:09.905Z,103000.83
2019-02-27T02:18:27.999Z,102995.87
2019-02-27T02:21:18.023Z,102999.37
2019-02-27T02:24:26.447Z,102998.92
2019-02-27T02:27:20.854Z,102998.19
2019-02-27T02:30:12.871Z,102994.75
2019-02-27T02:32:53.405Z,102986.97
2019-02-27T02:35:53.662Z,102977.38
2019-02-27T02:39:09.038Z,102974.41
2019-02-27T02:42:24.345Z,102975.91
2019-02-27T02:45:49.425Z,102979.31
2019-02-27T02:48:35.724Z,102978.91
2019-02-27T02:51:46.188Z,102975.44
2019-02-27T02:54:48.406Z,102969.76
2019-02-27T02:57:36.236Z,102962.17
2019-02-27T03:00:29.197Z,102951.35
2019-02-27T03:03:28.967Z,102942.44
2019-02-27T03:06:38.623Z,102939.45
2019-02-27T03:09:12.718Z,102939.00
2019-02-27T03:12:29.826Z,102939.13
2019-02-27T03:15:19.770Z,102930.99
2019-02-27T03:18:04.697Z,102935.43
2019-02-27T03:21:07.987Z,102932.62
2019-02-27T03:24:00.570Z,102940.68
2019-02-27T03:27:11.712Z,102939.49
2019-02-27T03:30:21.138Z,102929.41
2019-02-27T03:33:28.564Z,102929.83
2019-02-27T03:36:35.821Z,102932.05
2019-02-27T03:39:23.055Z,102927.10
2019-02-27T03:42:30.920Z,102924.01
2019-02-27T03:45:30.715Z,102915.45
2019-02-27T03:48:44.180Z,102911.84
2019-02-27T03:51:24.706Z,102913.59
2019-02-27T03:54:21.306Z,102907.55
2019-02-27T03:57:21.417Z,102908.53
2019-02-27T04:00:23.688Z,102910.64
2019-02-27T04:03:17.137Z,102910.42
2019-02-27T04:06:21.329Z,102907.42
2019-02-27T04:08:53.905Z,102905.95
2019-02-27T04:11:21.224Z,102903.52
2019-02-27T04:13:48.277Z,102896.17
2019-02-27T04:16:15.317Z,102897.79
2019-02-27T04:18:43.017Z,102894.42
2019-02-27T04:21:10.033Z,102888.70
2019-02-27T04:23:37.094Z,102885.00
2019-02-27T04:26:05.771Z,102878.51
2019-02-27T04:28:33.068Z,102879.23
2019-02-27T04:31:00.391Z,102871.50
2019-02-27T04:33:29.222Z,102870.11
2019-02-27T04:35:56.265Z,102872.29
2019-02-27T04:38:25.094Z,102868.78
2019-02-27T04:40:52.234Z,102865.64
2019-02-27T04:43:19.245Z,102866.18
2019-02-27T04:45:46.883Z,102863.39
2019-02-27T04:48:15.669Z,102864.66
2019-02-27T04:50:44.170Z,102861.09
2019-02-27T04:53:11.596Z,102852.34
2019-02-27T04:55:38.632Z,102849.58
2019-02-27T04:58:08.833Z,102844.53
2019-02-27T05:00:34.896Z,102839.93
2019-02-27T05:03:01.902Z,102833.87
2019-02-27T05:05:28.930Z,102836.80
2019-02-27T05:07:55.937Z,102837.41
2019-02-27T05:10:23.369Z,102843.39
2019-02-27T05:12:51.433Z,102839.80
2019-02-27T05:15:18.734Z,102831.51
2019-02-27T05:17:46.579Z,102822.93
2019-02-27T05:20:14.323Z,102827.42
2019-02-27T05:22:46.695Z,102829.00
2019-02-27T05:25:15.049Z,102830.44
2019-02-27T05:27:43.352Z,102827.88
2019-02-27T05:30:12.323Z,102824.45
2019-02-27T05:32:40.031Z,102815.98
2019-02-27T05:35:07.200Z,102811.27
2019-02-27T05:37:36.093Z,102817.83
2019-02-27T05:40:03.651Z,102818.27
2019-02-27T05:42:30.846Z,102819.36
2019-02-27T05:44:57.931Z,102812.09
2019-02-27T05:47:25.066Z,102807.85
2019-02-27T05:49:52.147Z,102809.19
2019-02-27T05:52:19.238Z,102811.05
2019-02-27T05:54:46.423Z,102811.23
2019-02-27T05:57:15.324Z,102806.78
2019-02-27T05:59:42.420Z,102807.53
2019-02-27T06:02:10.990Z,102807.82
2019-02-27T06:04:38.698Z,102803.52
2019-02-27T06:07:06.345Z,102809.24
2019-02-27T06:09:35.128Z,102803.47
2019-02-27T06:12:06.524Z,102806.77
2019-02-27T06:14:33.333Z,102801.92
2019-02-27T06:17:01.086Z,102796.40
2019-02-27T06:19:30.577Z,102796.80
2019-02-27T06:21:57.836Z,102794.81
2019-02-27T06:24:25.294Z,102792.20
2019-02-27T06:26:52.443Z,102790.20
2019-02-27T06:29:23.294Z,102784.52
2019-02-27T06:31:49.710Z,102795.61
2019-02-27T06:34:16.875Z,102793.16
2019-02-27T06:36:44.624Z,102785.56
2019-02-27T06:39:12.418Z,102790.66
2019-02-27T06:41:39.993Z,102789.37
2019-02-27T06:44:08.306Z,102790.98
2019-02-27T06:46:35.431Z,102788.70
2019-02-27T06:49:03.599Z,102784.27
2019-02-27T06:51:30.711Z,102791.84
2019-02-27T06:53:57.865Z,102786.74
2019-02-27T06:56:24.978Z,102784.14
2019-02-27T06:58:52.445Z,102782.50
2019-02-27T07:01:19.530Z,102777.99
2019-02-27T07:03:47.367Z,102777.32
2019-02-27T07:06:14.780Z,102768.83
2019-02-27T07:08:42.180Z,102771.72
2019-02-27T07:11:11.265Z,102766.29
2019-02-27T07:13:38.636Z,102769.80
2019-02-27T07:16:06.091Z,102760.20
2019-02-27T07:18:36.434Z,102764.75
2019-02-27T07:21:03.969Z,102761.81
2019-02-27T07:23:31.301Z,102763.48
2019-02-27T07:25:59.324Z,102756.89
2019-02-27T07:28:26.397Z,102761.08
2019-02-27T07:30:53.854Z,102754.06
2019-02-27T07:33:22.351Z,102747.55
2019-02-27T07:35:49.708Z,102747.95
2019-02-27T07:38:21.400Z,102746.62
2019-02-27T07:40:46.085Z,102739.44
2019-02-27T07:43:14.159Z,102739.38
2019-02-27T07:45:45.023Z,102740.39
2019-02-27T07:48:11.937Z,102738.86
2019-02-27T07:50:40.522Z,102736.27
2019-02-27T07:53:07.956Z,102734.64
2019-02-27T07:55:35.332Z,102733.34
2019-02-27T07:58:02.451Z,102734.13
2019-02-27T08:00:29.522Z,102740.10
2019-02-27T08:02:56.679Z,102734.00
2019-02-27T08:05:28.265Z,102733.88
2019-02-27T08:07:53.594Z,102725.53
2019-02-27T08:10:20.717Z,102721.61
2019-02-27T08:12:48.098Z,102718.23
2019-02-27T08:15:16.038Z,102714.73
2019-02-27T08:17:43.968Z,102717.13
2019-02-27T08:20:12.841Z,102715.55
2019-02-27T08:22:39.903Z,102708.81
2019-02-27T08:25:08.407Z,102703.66
2019-02-27T08:27:35.851Z,102706.63
2019-02-27T08:30:04.340Z,102691.28
2019-02-27T08:32:34.586Z,102691.28
2019-02-27T08:35:02.052Z,102702.70
2019-02-27T08:37:30.145Z,102698.44
2019-02-27T08:39:57.261Z,102698.44
2019-02-27T08:42:24.312Z,102700.06
2019-02-27T08:44:51.389Z,102688.00
2019-02-27T08:47:18.587Z,102682.31
2019-02-27T08:49:45.641Z,102678.90
2019-02-27T08:52:16.249Z,102678.04
2019-02-27T08:54:43.465Z,102678.52
2019-02-27T08:57:10.997Z,102686.56
2019-02-27T08:59:39.872Z,102681.95
2019-02-27T09:02:08.747Z,102678.02
2019-02-27T09:04:36.934Z,102673.42
2019-02-27T09:07:04.022Z,102673.89
2019-02-27T09:09:31.102Z,102670.42
2019-02-27T09:11:58.298Z,102669.11
2019-02-27T09:14:25.492Z,102656.91
2019-02-27T09:16:52.560Z,102646.55
2019-02-27T09:19:20.768Z,102641.27
2019-02-27T09:21:49.422Z,102646.48
2019-02-27T09:24:16.855Z,102633.63
2019-02-27T09:26:44.852Z,102630.51
2019-02-27T09:29:13.377Z,102619.38
2019-02-27T09:31:50.271Z,102614.78
2019-02-27T09:34:09.701Z,102606.95
2019-02-27T09:36:36.705Z,102609.08
2019-02-27T09:39:05.943Z,102599.16
2019-02-27T09:41:34.399Z,102592.73
2019-02-27T09:44:02.675Z,102596.66
2019-02-27T09:46:29.792Z,102588.47
2019-02-27T09:48:57.176Z,102584.24
2019-02-27T09:51:24.332Z,102577.80
2019-02-27T09:53:51.697Z,102573.73
2019-02-27T09:56:19.085Z,102572.89
2019-02-27T09:58:47.357Z,102563.42
2019-02-27T10:01:16.350Z,102573.05
2019-02-27T10:03:43.374Z,102567.05
2019-02-27T10:06:10.434Z,102558.27
2019-02-27T10:08:37.774Z,102559.98
2019-02-27T10:11:05.111Z,102565.22
2019-02-27T10:13:35.480Z,102559.23
2019-02-27T10:16:03.668Z,102558.83
2019-02-27T10:18:31.787Z,102562.80
2019-02-27T10:20:59.029Z,102551.77
2019-02-27T10:23:30.454Z,102551.55
2019-02-27T10:25:55.574Z,102550.63
2019-02-27T10:28:22.686Z,102548.07
2019-02-27T10:30:50.942Z,102540.41
2019-02-27T10:33:18.391Z,102538.44
2019-02-27T10:35:45.593Z,102533.48
2019-02-27T10:38:12.679Z,102536.62
2019-02-27T10:40:40.534Z,102531.94
2019-02-27T10:43:08.711Z,102535.91
2019-02-27T10:45:36.140Z,102522.47
2019-02-27T10:48:03.216Z,102519.33
2019-02-27T10:50:30.411Z,102505.69
2019-02-27T10:52:57.502Z,102508.28
2019-02-27T10:55:26.698Z,102508.52
2019-02-27T10:57:54.071Z,102503.58
2019-02-27T11:00:28.342Z,102507.58
2019-02-27T11:02:55.501Z,102507.36
2019-02-27T11:05:24.527Z,102505.85
2019-02-27T11:07:52.972Z,102499.14
2019-02-27T11:10:21.925Z,102487.66
2019-02-27T11:12:49.307Z,102484.70
2019-02-27T11:15:16.722Z,102482.80
2019-02-27T11:17:43.890Z,102474.33
2019-02-27T11:20:11.176Z,102467.46
2019-02-27T11:22:38.457Z,102458.06
2019-02-27T11:25:08.066Z,102450.00
2019-02-27T11:27:36.327Z,102454.35
2019-02-27T11:30:05.453Z,102458.55
2019-02-27T11:32:35.490Z,102459.08
2019-02-27T11:35:02.867Z,102458.11
2019-02-27T11:37:30.798Z,102447.09
2019-02-27T11:39:57.865Z,102445.62
2019-02-27T11:42:25.696Z,102444.20
2019-02-27T11:44:53.102Z,102436.73
2019-02-27T11:47:20.181Z,102433.81
2019-02-27T11:49:47.565Z,102433.36
2019-02-27T11:52:14.625Z,102425.84
2019-02-27T11:54:43.811Z,102429.20
2019-02-27T11:57:12.893Z,102448.78
2019-02-27T11:59:39.942Z,102434.61
2019-02-27T12:02:07.525Z,102427.59
2019-02-27T12:04:34.582Z,102424.03
2019-02-27T12:07:01.764Z,102415.10
2019-02-27T12:09:28.810Z,102412.41
2019-02-27T12:11:55.878Z,102397.84
2019-02-27T12:14:23.052Z,102379.52
2019-02-27T12:16:52.488Z,102379.91
2019-02-27T12:19:19.798Z,102376.10
2019-02-27T12:21:47.155Z,102371.33
2019-02-27T12:24:16.338Z,102365.59
2019-02-27T12:26:43.482Z,102367.94
2019-02-27T12:29:10.539Z,102372.22
2019-02-27T12:31:37.630Z,102372.59
2019-02-27T12:34:05.173Z,102366.73
2019-02-27T12:36:32.280Z,102361.36
2019-02-27T12:38:59.339Z,102370.21
2019-02-27T12:41:26.776Z,102350.73
2019-02-27T12:43:53.874Z,102349.34
2019-02-27T12:46:20.979Z,102340.11
2019-02-27T12:48:48.078Z,102341.13
2019-02-27T12:51:15.135Z,102331.79
2019-02-27T12:53:42.490Z,102326.19
2019-02-27T12:56:10.013Z,102317.35
2019-02-27T12:58:37.233Z,102312.41
2019-02-27T13:01:05.442Z,102294.92
2019-02-27T13:03:32.500Z,102288.41
2019-02-27T13:06:00.942Z,102276.63
2019-02-27T13:08:28.723Z,102276.59
2019-02-27T13:10:56.547Z,102292.13
2019-02-27T13:13:25.949Z,102278.89
2019-02-27T13:15:52.652Z,102269.94
2019-02-27T13:18:19.716Z,102269.14
2019-02-27T13:20:46.805Z,102258.24
2019-02-27T13:23:13.868Z,102262.89
2019-02-27T13:25:40.938Z,102251.73
2019-02-27T13:28:08.697Z,102271.08
2019-02-27T13:30:36.046Z,102251.74
2019-02-27T13:33:03.506Z,102236.92
2019-02-27T13:35:31.371Z,102234.14
2019-02-27T13:37:58.982Z,102239.02
2019-02-27T13:40:26.486Z,102230.42
2019-02-27T13:42:53.986Z,102223.28
2019-02-27T13:45:22.819Z,102226.03
2019-02-27T13:47:50.601Z,102227.61
2019-02-27T13:50:22.405Z,102223.66
2019-02-27T13:52:49.783Z,102221.46
2019-02-27T13:55:16.546Z,102221.59
2019-02-27T13:57:44.421Z,102202.77
2019-02-27T14:00:20.404Z,102194.70
2019-02-27T14:02:46.351Z,102189.29
2019-02-27T14:05:14.366Z,102187.06
2019-02-27T14:07:42.130Z,102186.73
2019-02-27T14:10:10.793Z,102175.77
2019-02-27T14:12:38.586Z,102170.02
2019-02-27T14:15:07.156Z,102157.36
2019-02-27T14:17:36.223Z,102157.55
2019-02-27T14:20:05.332Z,102148.05
2019-02-27T14:22:33.431Z,102145.52
2019-02-27T14:25:01.186Z,102130.99
2019-02-27T14:27:29.671Z,102130.34
2019-02-27T14:29:57.092Z,102128.31
2019-02-27T14:32:24.327Z,102124.14
2019-02-27T14:34:51.555Z,102122.73
2019-02-27T14:37:19.382Z,102121.73
2019-02-27T14:39:46.945Z,102121.10
2019-02-27T14:42:14.309Z,102109.34
2019-02-27T14:44:42.397Z,102110.18
2019-02-27T14:47:09.596Z,102094.84
2019-02-27T14:49:37.090Z,102095.94
2019-02-27T14:52:04.444Z,102101.98
2019-02-27T14:54:32.617Z,102089.20
2019-02-27T14:57:00.277Z,102084.64
2019-02-27T14:59:30.500Z,102079.77
2019-02-27T15:01:58.377Z,102075.47
2019-02-27T15:04:25.462Z,102072.41
2019-02-27T15:06:52.769Z,102059.94
2019-02-27T15:09:21.377Z,102061.39
2019-02-27T15:11:50.855Z,102059.09
2019-02-27T15:14:19.145Z,102055.50
2019-02-27T15:16:49.874Z,102063.87
2019-02-27T15:19:18.945Z,102052.97
2019-02-27T15:21:47.317Z,102044.16
2019-02-27T15:24:15.678Z,102038.05
2019-02-27T15:26:45.444Z,102036.28
2019-02-27T15:29:12.683Z,102030.30
2019-02-27T15:31:40.650Z,102029.39
2019-02-27T15:34:11.971Z,102030.19
2019-02-27T15:36:37.242Z,102021.40
2019-02-27T15:39:06.357Z,102026.34
2019-02-27T15:41:35.972Z,102029.58
2019-02-27T15:44:04.200Z,102023.50
2019-02-27T15:46:31.419Z,102028.56
2019-02-27T15:49:00.392Z,102011.35
2019-02-27T15:51:28.523Z,102011.09
2019-02-27T15:53:56.842Z,102004.38
2019-02-27T15:56:24.611Z,101998.34
2019-02-27T15:58:52.095Z,102000.74
2019-02-27T16:01:19.654Z,101997.55
2019-02-27T16:03:47.158Z,101991.50
2019-02-27T16:06:14.646Z,101986.41
2019-02-27T16:08:42.061Z,101988.89
2019-02-27T16:11:10.200Z,101988.56
2019-02-27T16:13:38.260Z,101993.05
2019-02-27T16:16:05.337Z,101988.39
2019-02-27T16:18:33.864Z,101986.03
2019-02-27T16:21:01.911Z,101975.94
2019-02-27T16:23:31.553Z,101977.03
2019-02-27T16:25:58.627Z,101972.14
2019-02-27T16:28:26.016Z,101965.81
2019-02-27T16:30:53.748Z,101961.67
2019-02-27T16:33:24.062Z,101960.83
2019-02-27T16:35:50.706Z,101962.78
2019-02-27T16:38:18.197Z,101955.64
2019-02-27T16:40:45.270Z,101949.98
2019-02-27T16:43:14.326Z,101944.22
2019-02-27T16:45:44.127Z,101943.20
2019-02-27T16:48:11.530Z,101935.20
2019-02-27T16:50:39.345Z,101929.46
2019-02-27T16:53:07.079Z,101929.80
2019-02-27T16:55:37.459Z,101926.17
2019-02-27T16:58:07.755Z,101920.05
2019-02-27T17:00:35.446Z,101919.79
2019-02-27T17:03:02.971Z,101917.30
2019-02-27T17:05:32.025Z,101903.17
2019-02-27T17:08:02.000Z,101903.04
2019-02-27T17:10:29.585Z,101899.30
2019-02-27T17:12:57.308Z,101896.23
2019-02-27T17:15:24.713Z,101893.77
2019-02-27T17:17:53.931Z,101885.87
2019-02-27T17:20:24.085Z,101883.94
2019-02-27T17:22:52.250Z,101880.59
2019-02-27T17:25:19.319Z,101875.10
2019-02-27T17:27:49.913Z,101872.59
2019-02-27T17:30:20.461Z,101865.45
2019-02-27T17:32:47.741Z,101861.25
2019-02-27T17:35:14.859Z,101856.70
2019-02-27T17:37:42.270Z,101847.83
2019-02-27T17:40:09.867Z,101842.79
2019-02-27T17:42:39.051Z,101843.75
2019-02-27T17:45:10.054Z,101830.37
2019-02-27T17:47:38.014Z,101827.52
2019-02-27T17:50:05.850Z,101821.05
2019-02-27T17:52:36.292Z,101819.39
2019-02-27T17:55:06.853Z,101815.55
2019-02-27T17:57:35.826Z,101815.98
2019-02-27T18:00:06.232Z,101814.48
2019-02-27T18:02:35.632Z,101811.91
2019-02-27T18:05:03.508Z,101808.23
2019-02-27T18:07:34.526Z,101806.29
2019-02-27T18:10:02.393Z,101807.42
2019-02-27T18:12:30.700Z,101798.30
2019-02-27T18:14:57.904Z,101804.62
2019-02-27T18:17:25.998Z,101796.25
2019-02-27T18:19:55.221Z,101796.74
2019-02-27T18:22:24.400Z,101797.67
2019-02-27T18:24:57.228Z,101795.39
2019-02-27T18:27:25.447Z,101793.24
2019-02-27T18:29:53.882Z,101794.09
2019-02-27T18:32:22.515Z,101792.55
2019-02-27T18:34:54.394Z,101790.96
2019-02-27T18:37:19.790Z,101788.30
2019-02-27T18:39:46.908Z,101784.83
2019-02-27T18:42:14.015Z,101782.77
2019-02-27T18:44:43.302Z,101772.88
2019-02-27T18:47:12.820Z,101770.72
2019-02-27T18:49:44.852Z,101762.58
2019-02-27T18:52:21.049Z,101757.33
2019-02-27T18:54:43.656Z,101754.44
2019-02-27T18:57:12.150Z,101757.62
2019-02-27T18:59:40.718Z,101753.39
2019-02-27T19:02:07.919Z,101753.88
2019-02-27T19:04:35.927Z,101743.45
2019-02-27T19:07:03.990Z,101733.05
2019-02-27T19:09:34.348Z,101735.80
2019-02-27T19:12:01.947Z,101736.14
2019-02-27T19:14:30.281Z,101719.23
2019-02-27T19:16:58.049Z,101722.70
2019-02-27T19:19:26.318Z,101716.86
2019-02-27T19:21:53.411Z,101714.25
2019-02-27T19:24:26.514Z,101714.32
2019-02-27T19:26:49.600Z,101707.87
2019-02-27T19:29:16.674Z,101706.20
2019-02-27T19:31:43.780Z,101709.92
2019-02-27T19:34:10.937Z,101704.70
2019-02-27T19:36:38.022Z,101699.83
2019-02-27T19:39:06.528Z,101687.61
2019-02-27T19:41:39.528Z,101680.39
2019-02-27T19:44:05.299Z,101684.59
2019-02-27T19:46:32.746Z,101671.73
2019-02-27T19:49:00.890Z,101660.55
2019-02-27T19:51:28.825Z,101661.38
2019-02-27T19:53:55.918Z,101655.59
2019-02-27T19:56:24.370Z,101665.48
2019-02-27T19:58:52.639Z,101649.62
2019-02-27T20:01:20.138Z,101650.84
2019-02-27T20:03:47.195Z,101644.80
2019-02-27T20:06:14.652Z,101646.34
2019-02-27T20:08:45.325Z,101634.80
2019-02-27T20:11:11.681Z,101635.98
2019-02-27T20:13:38.839Z,101645.08
2019-02-27T20:16:06.352Z,101642.75
2019-02-27T20:18:33.583Z,101635.34
2019-02-27T20:21:02.565Z,101629.73
2019-02-27T20:23:29.670Z,101630.37
2019-02-27T20:25:56.747Z,101623.22
2019-02-27T20:28:23.867Z,101623.89
2019-02-27T20:30:52.740Z,101623.89
2019-02-27T20:33:22.269Z,101624.89
2019-02-27T20:35:52.286Z,101612.34
2019-02-27T20:38:20.192Z,101612.34
2019-02-27T20:40:47.240Z,101603.51
2019-02-27T20:43:14.492Z,101579.19
2019-02-27T20:45:42.982Z,101579.19
2019-02-27T20:48:10.561Z,101585.06
2019-02-27T20:50:39.967Z,101585.06
2019-02-27T20:53:08.002Z,101580.91
2019-02-27T20:55:35.661Z,101580.91
2019-02-27T20:58:03.172Z,101574.83
2019-02-27T21:00:36.133Z,101561.08
2019-02-27T21:03:02.599Z,101561.08
2019-02-27T21:05:30.958Z,101567.33
2019-02-27T21:08:02.065Z,101557.48
2019-02-27T21:10:28.725Z,101551.84
2019-02-27T21:12:56.130Z,101551.84
2019-02-27T21:15:24.861Z,101547.55
2019-02-27T21:17:52.503Z,101526.20
2019-02-27T21:20:19.586Z,101534.25
2019-02-27T21:22:47.211Z,101532.45
2019-02-27T21:25:15.677Z,101532.45
2019-02-27T21:27:43.307Z,101539.24
2019-02-27T21:30:17.776Z,101526.52
2019-02-27T21:32:42.784Z,101526.52
2019-02-27T21:35:10.127Z,101535.76
2019-02-27T21:37:37.752Z,101537.45
2019-02-27T21:40:04.881Z,101540.34
2019-02-27T21:42:32.819Z,101532.80
2019-02-27T21:45:03.673Z,101532.38
2019-02-27T21:47:29.161Z,101523.34
2019-02-27T21:49:56.250Z,101521.13
2019-02-27T21:52:24.270Z,101507.09
2019-02-27T21:54:52.030Z,101502.56
2019-02-27T21:57:19.082Z,101500.86
2019-02-27T21:59:47.320Z,101489.00
2019-02-27T22:02:14.557Z,101489.00
2019-02-27T22:04:44.054Z,101484.81
2019-02-27T22:07:11.695Z,101493.16
2019-02-27T22:09:38.778Z,101488.58
2019-02-27T22:12:07.049Z,101489.48
2019-02-27T22:14:34.769Z,101485.05
2019-02-27T22:17:05.064Z,101484.33
2019-02-27T22:19:32.645Z,101482.80
2019-02-27T22:22:01.618Z,101463.80
2019-02-27T22:24:28.751Z,101460.94
2019-02-27T22:26:56.155Z,101450.27
2019-02-27T22:29:25.245Z,101443.73
2019-02-27T22:31:54.367Z,101450.73
2019-02-27T22:34:22.612Z,101455.28
2019-02-27T22:36:51.088Z,101455.53
2019-02-27T22:39:18.498Z,101453.07
2019-02-27T22:41:45.682Z,101456.27
2019-02-27T22:44:15.603Z,101455.72
2019-02-27T22:46:42.718Z,101450.91
2019-02-27T22:49:09.807Z,101435.64
2019-02-27T22:51:37.160Z,101421.20
2019-02-27T22:54:06.357Z,101427.82
2019-02-27T22:56:34.144Z,101426.94
2019-02-27T22:59:02.980Z,101418.47
2019-02-27T23:01:59.614Z,101411.08
2019-02-27T23:04:30.026Z,101405.52
2019-02-27T23:06:56.529Z,101411.05
2019-02-27T23:09:26.491Z,101410.21
2019-02-27T23:11:53.886Z,101404.03
2019-02-27T23:14:21.358Z,101386.37
2019-02-27T23:16:48.578Z,101393.58
2019-02-27T23:19:15.962Z,101385.14
2019-02-27T23:21:43.175Z,101391.20
2019-02-27T23:24:11.274Z,101383.03
2019-02-27T23:26:39.659Z,101373.70
2019-02-27T23:29:07.554Z,101364.09
2019-02-27T23:31:34.794Z,101369.27
2019-02-27T23:34:02.057Z,101365.45
2019-02-27T23:36:30.409Z,101375.09
2019-02-27T23:38:58.103Z,101378.38
2019-02-27T23:41:26.116Z,101368.94
2019-02-27T23:43:53.191Z,101358.83
2019-02-27T23:46:20.377Z,101367.11
2019-02-27T23:48:47.480Z,101357.55
2019-02-27T23:51:16.747Z,101361.89
2019-02-27T23:53:43.624Z,101356.01
2019-02-27T23:56:10.724Z,101353.27
2019-02-27T23:58:37.968Z,101356.16
